createdAt,value
2022-11-17T00:01:39.939Z,61.58
2022-11-17T00:04:10.717Z,62.05
2022-11-17T00:06:41.657Z,62.57
2022-11-17T00:09:17.648Z,62.40
2022-11-17T00:12:07.184Z,61.59
2022-11-17T00:14:39.994Z,60.11
2022-11-17T00:17:11.651Z,61.20
2022-11-17T00:19:59.449Z,64.69
2022-11-17T00:22:31.303Z,64.12
2022-11-17T00:25:01.882Z,64.45
2022-11-17T00:27:32.697Z,64.21
2022-11-17T00:30:03.229Z,63.40
2022-11-17T00:32:54.218Z,62.09
2022-11-17T00:35:24.611Z,62.21
2022-11-17T00:38:27.256Z,62.07
2022-11-17T00:40:58.928Z,61.48
2022-11-17T00:43:29.946Z,61.14
2022-11-17T00:46:00.472Z,60.15
2022-11-17T00:48:31.456Z,61.03
2022-11-17T00:51:05.828Z,60.75
2022-11-17T00:53:37.259Z,60.61
2022-11-17T00:56:08.137Z,61.04
2022-11-17T00:58:39.535Z,60.72
2022-11-17T01:01:10.019Z,60.91
2022-11-17T01:03:41.427Z,61.23
2022-11-17T01:06:12.789Z,62.05
2022-11-17T01:08:44.202Z,61.31
2022-11-17T01:11:15.785Z,62.84
2022-11-17T01:13:47.744Z,62.95
2022-11-17T01:16:19.100Z,62.60
2022-11-17T01:18:50.340Z,62.66
2022-11-17T01:21:21.781Z,62.78
2022-11-17T01:23:53.163Z,61.99
2022-11-17T01:26:24.572Z,62.35
2022-11-17T01:28:55.383Z,63.41
2022-11-17T01:31:27.289Z,62.59
2022-11-17T01:33:58.523Z,62.59
2022-11-17T01:36:30.343Z,62.94
2022-11-17T01:39:01.539Z,63.37
2022-11-17T01:41:32.088Z,63.75
2022-11-17T01:44:16.292Z,62.88
2022-11-17T01:46:47.342Z,62.93
2022-11-17T01:49:20.499Z,62.28
2022-11-17T01:51:52.748Z,62.04
2022-11-17T01:54:25.787Z,61.28
2022-11-17T01:56:58.470Z,60.97
2022-11-17T01:59:30.578Z,62.48
2022-11-17T02:02:01.029Z,63.77
2022-11-17T02:04:33.167Z,63.16
2022-11-17T02:07:06.855Z,63.01
2022-11-17T02:09:39.299Z,62.81
2022-11-17T02:12:10.480Z,61.58
2022-11-17T02:14:41.586Z,60.66
2022-11-17T02:17:14.428Z,60.80
2022-11-17T02:19:46.494Z,61.44
2022-11-17T02:22:27.795Z,62.10
2022-11-17T02:25:15.285Z,61.59
2022-11-17T02:27:54.548Z,60.58
2022-11-17T02:30:25.348Z,61.27
2022-11-17T02:33:01.677Z,61.51
2022-11-17T02:35:38.041Z,62.54
2022-11-17T02:38:20.545Z,63.52
2022-11-17T02:40:55.212Z,62.47
2022-11-17T02:43:46.231Z,62.85
2022-11-17T02:46:18.094Z,62.58
2022-11-17T02:48:51.025Z,63.02
2022-11-17T02:51:22.955Z,62.92
2022-11-17T02:53:54.498Z,63.72
2022-11-17T02:56:25.911Z,65.31
2022-11-17T02:58:58.774Z,64.58
2022-11-17T03:01:37.263Z,62.61
2022-11-17T03:04:16.557Z,62.25
2022-11-17T03:06:49.497Z,63.19
2022-11-17T03:09:23.099Z,63.15
2022-11-17T03:11:58.693Z,62.61
2022-11-17T03:14:32.379Z,62.62
2022-11-17T03:17:05.410Z,62.39
2022-11-17T03:19:39.155Z,62.21
2022-11-17T03:22:13.292Z,60.87
2022-11-17T03:24:46.463Z,60.97
2022-11-17T03:27:21.516Z,60.53
2022-11-17T03:29:53.787Z,60.75
2022-11-17T03:32:24.837Z,62.02
2022-11-17T03:34:57.513Z,62.02
2022-11-17T03:37:29.795Z,61.78
2022-11-17T03:40:02.738Z,62.83
2022-11-17T03:42:34.859Z,63.56
2022-11-17T03:45:07.871Z,62.13
2022-11-17T03:47:39.348Z,62.65
2022-11-17T03:50:13.291Z,62.84
2022-11-17T03:52:45.749Z,62.75
2022-11-17T04:09:27.838Z,63.22
2022-11-17T04:12:14.907Z,62.13
2022-11-17T04:15:03.461Z,61.89
2022-11-17T04:17:33.967Z,62.66
2022-11-17T04:20:04.933Z,62.52
2022-11-17T04:22:35.760Z,61.72
2022-11-17T04:25:06.917Z,61.20
2022-11-17T04:27:55.247Z,59.95
2022-11-17T04:30:25.841Z,62.00
2022-11-17T04:32:56.304Z,66.41
2022-11-17T04:35:27.516Z,65.24
2022-11-17T04:37:58.079Z,63.60
2022-11-17T04:40:28.761Z,62.84
2022-11-17T04:42:59.344Z,63.55
2022-11-17T04:45:30.044Z,63.84
2022-11-17T04:48:00.942Z,62.91
2022-11-17T04:50:31.540Z,63.03
2022-11-17T04:53:02.578Z,62.35
2022-11-17T04:55:34.804Z,62.95
2022-11-17T04:58:05.646Z,63.07
2022-11-17T05:00:36.697Z,62.66
2022-11-17T05:03:07.260Z,62.82
2022-11-17T05:05:38.102Z,63.64
2022-11-17T05:08:08.624Z,62.82
2022-11-17T05:10:57.231Z,62.10
2022-11-17T05:13:27.804Z,62.07
2022-11-17T05:16:16.701Z,62.91
2022-11-17T05:18:47.357Z,63.68
2022-11-17T05:21:18.162Z,63.05
2022-11-17T05:23:57.686Z,63.21
2022-11-17T05:26:29.082Z,61.96
2022-11-17T05:29:00.153Z,62.07
2022-11-17T05:31:31.125Z,61.99
2022-11-17T05:34:02.130Z,63.26
2022-11-17T05:36:33.449Z,63.80
2022-11-17T05:39:04.322Z,63.38
2022-11-17T05:41:35.165Z,63.59
2022-11-17T05:44:06.303Z,64.32
2022-11-17T05:46:37.647Z,64.17
2022-11-17T05:49:08.493Z,63.59
2022-11-17T05:51:39.500Z,63.49
2022-11-17T05:54:10.464Z,62.29
2022-11-17T05:56:43.035Z,62.91
2022-11-17T05:59:15.930Z,61.77
2022-11-17T06:01:48.397Z,62.07
2022-11-17T06:04:20.225Z,63.32
2022-11-17T06:06:51.345Z,63.35
2022-11-17T06:09:21.780Z,63.21
2022-11-17T06:11:52.632Z,63.22
2022-11-17T06:14:23.090Z,63.83
2022-11-17T06:16:56.622Z,63.79
2022-11-17T06:19:30.996Z,65.53
2022-11-17T06:22:16.850Z,64.86
2022-11-17T06:24:47.824Z,65.46
2022-11-17T06:27:18.659Z,65.37
2022-11-17T06:29:49.669Z,64.78
2022-11-17T06:32:21.188Z,64.64
2022-11-17T06:34:55.810Z,63.86
2022-11-17T06:37:27.306Z,62.80
2022-11-17T06:39:57.755Z,62.78
2022-11-17T06:42:42.474Z,63.61
2022-11-17T06:45:13.446Z,63.48
2022-11-17T06:47:44.284Z,62.40
2022-11-17T06:50:14.994Z,61.57
2022-11-17T06:52:45.521Z,62.09
2022-11-17T06:55:16.074Z,62.14
2022-11-17T06:57:53.044Z,62.23
2022-11-17T07:00:24.055Z,62.48
2022-11-17T07:02:54.941Z,62.93
2022-11-17T07:05:25.459Z,61.48
2022-11-17T07:07:58.005Z,62.07
2022-11-17T07:10:27.613Z,62.87
2022-11-17T07:12:58.170Z,63.54
2022-11-17T07:15:28.653Z,63.23
2022-11-17T07:17:59.772Z,63.50
2022-11-17T07:20:30.386Z,61.28
2022-11-17T07:23:01.335Z,61.84
2022-11-17T07:25:31.735Z,61.60
2022-11-17T07:28:02.463Z,61.28
2022-11-17T07:30:33.093Z,61.64
2022-11-17T07:33:03.891Z,61.76
2022-11-17T07:35:36.785Z,63.67
2022-11-17T07:38:07.392Z,63.19
2022-11-17T07:40:38.083Z,62.29
2022-11-17T07:43:08.565Z,62.88
2022-11-17T07:45:39.657Z,63.98
2022-11-17T07:48:10.521Z,64.19
2022-11-17T07:50:41.884Z,63.35
2022-11-17T07:53:12.565Z,62.44
2022-11-17T07:55:43.405Z,61.78
2022-11-17T07:58:14.132Z,61.96
2022-11-17T08:00:44.737Z,61.81
2022-11-17T08:03:15.553Z,62.65
2022-11-17T08:05:46.255Z,62.16
2022-11-17T08:08:16.922Z,62.32
2022-11-17T08:10:47.286Z,61.58
2022-11-17T08:13:17.917Z,61.31
2022-11-17T08:15:48.441Z,61.92
2022-11-17T08:18:19.383Z,62.39
2022-11-17T08:20:50.009Z,61.93
2022-11-17T08:23:20.848Z,61.95
2022-11-17T08:25:51.228Z,62.58
2022-11-17T08:28:22.624Z,64.02
2022-11-17T08:30:53.023Z,64.59
2022-11-17T08:33:23.985Z,64.33
2022-11-17T08:35:54.519Z,63.05
2022-11-17T08:38:29.145Z,62.79
2022-11-17T08:41:00.199Z,63.82
2022-11-17T08:43:30.919Z,63.07
2022-11-17T08:46:02.750Z,63.22
2022-11-17T08:48:33.731Z,62.71
2022-11-17T08:51:07.457Z,62.46
2022-11-17T08:53:38.243Z,63.08
2022-11-17T08:56:09.795Z,62.57
2022-11-17T08:58:43.765Z,62.18
2022-11-17T09:01:16.036Z,62.04
2022-11-17T09:03:47.936Z,61.57
2022-11-17T09:06:20.341Z,60.95
2022-11-17T09:08:53.787Z,60.16
2022-11-17T09:11:24.971Z,60.07
2022-11-17T09:13:55.792Z,61.26
2022-11-17T09:16:26.278Z,65.19
2022-11-17T09:18:58.488Z,63.87
2022-11-17T09:21:28.993Z,63.92
2022-11-17T09:23:59.541Z,63.44
2022-11-17T09:26:30.056Z,62.84
2022-11-17T09:29:03.711Z,62.14
2022-11-17T09:31:32.751Z,63.46
2022-11-17T09:34:05.539Z,62.63
2022-11-17T09:36:36.960Z,63.04
2022-11-17T09:39:07.607Z,62.14
2022-11-17T09:41:42.080Z,61.28
2022-11-17T09:44:23.578Z,61.98
2022-11-17T09:47:06.722Z,63.18
2022-11-17T09:49:42.607Z,62.02
2022-11-17T09:52:15.415Z,61.27
2022-11-17T09:54:48.411Z,62.00
2022-11-17T09:57:23.567Z,62.45
2022-11-17T10:00:00.895Z,61.52
2022-11-17T10:02:31.418Z,62.23
2022-11-17T10:05:02.125Z,61.65
2022-11-17T10:07:33.477Z,61.10
2022-11-17T10:10:04.890Z,62.51
2022-11-17T10:12:49.157Z,62.85
2022-11-17T10:15:18.061Z,62.90
2022-11-17T10:17:48.635Z,61.63
2022-11-17T10:20:20.085Z,61.31
2022-11-17T10:22:51.576Z,61.89
2022-11-17T10:28:26.587Z,60.79
2022-11-17T10:31:00.249Z,61.23
2022-11-17T10:33:39.591Z,62.62
2022-11-17T10:36:16.416Z,61.27
2022-11-17T10:38:48.020Z,60.62
2022-11-17T10:41:20.677Z,61.17
2022-11-17T10:43:57.701Z,60.96
2022-11-17T10:46:35.634Z,59.14
2022-11-17T10:49:24.973Z,63.31
2022-11-17T10:52:06.764Z,65.81
2022-11-17T10:54:38.976Z,64.53
2022-11-17T10:57:13.831Z,63.13
2022-11-17T10:59:48.692Z,61.05
2022-11-17T11:02:27.318Z,61.39
2022-11-17T11:05:08.194Z,62.21
2022-11-17T11:07:39.777Z,60.35
2022-11-17T11:10:15.638Z,61.31
2022-11-17T11:12:47.078Z,64.62
2022-11-17T11:15:38.683Z,63.42
2022-11-17T11:18:12.972Z,60.86
2022-11-17T11:20:47.504Z,60.86
2022-11-17T11:23:22.087Z,60.70
2022-11-17T11:25:56.858Z,60.13
2022-11-17T11:28:40.086Z,58.62
2022-11-17T11:31:19.928Z,61.20
2022-11-17T11:33:52.971Z,65.64
2022-11-17T11:36:27.687Z,63.24
2022-11-17T11:39:05.272Z,60.67
2022-11-17T11:41:46.673Z,59.13
2022-11-17T11:44:22.464Z,63.57
2022-11-17T11:46:57.213Z,64.43
2022-11-17T11:49:33.883Z,63.19
2022-11-17T11:52:06.711Z,62.60
2022-11-17T11:54:42.174Z,60.72
2022-11-17T11:57:17.124Z,60.88
2022-11-17T12:00:03.694Z,61.23
2022-11-17T12:02:42.140Z,60.67
2022-11-17T12:05:18.361Z,61.08
2022-11-17T12:07:52.183Z,59.00
2022-11-17T12:10:26.358Z,61.90
2022-11-17T12:12:57.088Z,65.26
2022-11-17T12:15:35.158Z,63.59
2022-11-17T12:18:07.326Z,62.15
2022-11-17T12:20:51.174Z,61.05
2022-11-17T12:23:27.180Z,59.78
2022-11-17T12:25:58.582Z,59.36
2022-11-17T12:28:34.660Z,64.31
2022-11-17T12:31:10.152Z,64.00
2022-11-17T12:33:58.567Z,62.93
2022-11-17T12:36:31.850Z,61.95
2022-11-17T12:39:02.967Z,61.03
2022-11-17T12:41:54.515Z,60.04
2022-11-17T12:44:44.054Z,59.41
2022-11-17T12:47:18.378Z,61.57
2022-11-17T12:49:53.248Z,64.98
2022-11-17T12:52:28.286Z,61.79
2022-11-17T12:55:02.651Z,59.77
2022-11-17T12:57:34.734Z,63.70
2022-11-17T13:00:11.030Z,64.79
2022-11-17T13:02:48.898Z,63.62
2022-11-17T13:05:21.207Z,61.73
2022-11-17T13:07:52.095Z,60.38
2022-11-17T13:10:26.718Z,60.17
2022-11-17T13:13:14.873Z,59.06
2022-11-17T13:15:45.596Z,59.66
2022-11-17T13:18:26.610Z,63.12
2022-11-17T13:20:57.809Z,66.37
2022-11-17T13:23:29.115Z,65.30
2022-11-17T13:26:18.862Z,62.71
2022-11-17T13:28:50.093Z,60.94
2022-11-17T13:31:21.422Z,60.42
2022-11-17T13:34:01.551Z,59.69
2022-11-17T13:36:32.071Z,62.40
2022-11-17T13:39:03.146Z,63.42
2022-11-17T13:41:39.054Z,62.50
2022-11-17T13:44:15.258Z,61.19
2022-11-17T13:46:46.042Z,61.07
2022-11-17T13:49:36.733Z,58.53
2022-11-17T13:52:14.596Z,61.60
2022-11-17T13:54:46.022Z,64.91
2022-11-17T13:57:23.714Z,64.48
2022-11-17T13:59:55.212Z,60.91
2022-11-17T14:02:27.047Z,58.83
2022-11-17T14:05:07.861Z,61.57
2022-11-17T14:07:39.618Z,65.75
2022-11-17T14:10:14.656Z,65.15
2022-11-17T14:12:45.959Z,63.25
2022-11-17T14:15:23.662Z,62.00
2022-11-17T14:17:54.910Z,61.21
2022-11-17T14:20:32.255Z,61.28
2022-11-17T14:23:03.904Z,60.47
2022-11-17T14:25:35.819Z,60.53
2022-11-17T14:28:13.099Z,61.14
2022-11-17T14:30:44.462Z,61.03
2022-11-17T14:33:15.081Z,60.27
2022-11-17T14:35:46.545Z,59.42
2022-11-17T14:38:19.009Z,59.81
2022-11-17T14:40:50.348Z,63.96
2022-11-17T14:43:21.040Z,64.67
2022-11-17T14:45:52.239Z,63.32
2022-11-17T14:48:22.792Z,62.13
2022-11-17T14:50:58.702Z,60.57
2022-11-17T14:53:29.741Z,60.94
2022-11-17T14:56:07.286Z,59.54
2022-11-17T14:58:37.988Z,61.99
2022-11-17T15:01:13.114Z,64.59
2022-11-17T15:03:43.771Z,63.31
2022-11-17T15:06:19.315Z,62.72
2022-11-17T15:08:53.984Z,62.44
2022-11-17T15:11:24.967Z,61.84
2022-11-17T15:13:55.879Z,60.83
2022-11-17T15:16:26.720Z,60.63
2022-11-17T15:18:57.447Z,60.13
2022-11-17T15:21:28.112Z,60.05
2022-11-17T15:23:58.709Z,60.19
2022-11-17T15:26:29.683Z,60.27
2022-11-17T15:29:01.201Z,59.64
2022-11-17T15:31:32.175Z,59.17
2022-11-17T15:34:02.768Z,61.49
2022-11-17T15:36:33.402Z,65.03
2022-11-17T15:39:04.029Z,64.71
2022-11-17T15:41:34.501Z,62.86
2022-11-17T15:44:04.988Z,61.40
2022-11-17T15:46:35.947Z,61.02
2022-11-17T15:49:06.922Z,61.44
2022-11-17T15:51:38.246Z,61.27
2022-11-17T15:54:11.033Z,61.19
2022-11-17T15:56:43.666Z,60.69
2022-11-17T15:59:14.998Z,60.45
2022-11-17T16:01:46.259Z,60.22
2022-11-17T16:04:17.070Z,60.41
2022-11-17T16:06:48.445Z,61.04
2022-11-17T16:09:18.974Z,60.91
2022-11-17T16:11:49.991Z,60.57
2022-11-17T16:14:21.293Z,60.62
2022-11-17T16:16:52.130Z,60.89
2022-11-17T16:19:22.592Z,60.75
2022-11-17T16:21:53.479Z,60.51
2022-11-17T16:24:24.094Z,59.78
2022-11-17T16:26:55.164Z,59.14
2022-11-17T16:29:26.189Z,61.73
2022-11-17T16:31:56.843Z,65.84
2022-11-17T16:34:28.146Z,64.20
2022-11-17T16:36:58.856Z,62.44
2022-11-17T16:39:29.618Z,61.60
2022-11-17T16:42:01.847Z,61.90
2022-11-17T16:44:32.340Z,62.01
2022-11-17T16:47:03.343Z,61.88
2022-11-17T16:49:35.928Z,61.34
2022-11-17T16:52:07.321Z,60.09
2022-11-17T16:54:38.110Z,59.66
2022-11-17T16:57:08.761Z,60.08
2022-11-17T16:59:39.677Z,64.23
2022-11-17T17:02:11.746Z,65.75
2022-11-17T17:04:42.473Z,64.66
2022-11-17T17:07:13.290Z,63.00
2022-11-17T17:09:43.747Z,61.34
2022-11-17T17:12:14.672Z,59.83
2022-11-17T17:14:45.207Z,63.33
2022-11-17T17:17:16.252Z,65.90
2022-11-17T17:19:46.800Z,64.44
2022-11-17T17:22:17.302Z,63.10
2022-11-17T17:24:48.453Z,62.27
2022-11-17T17:27:19.447Z,60.98
2022-11-17T17:29:50.313Z,61.12
2022-11-17T17:32:21.053Z,60.53
2022-11-17T17:34:51.889Z,60.33
2022-11-17T17:37:22.660Z,60.40
2022-11-17T17:39:53.147Z,60.75
2022-11-17T17:42:23.998Z,60.88
2022-11-17T17:44:54.614Z,61.19
2022-11-17T17:47:25.294Z,60.27
2022-11-17T17:49:56.184Z,60.20
2022-11-17T17:52:27.042Z,60.71
2022-11-17T17:54:58.120Z,60.44
2022-11-17T17:57:33.747Z,60.22
2022-11-17T18:00:05.733Z,60.50
2022-11-17T18:02:36.924Z,60.48
2022-11-17T18:05:08.073Z,59.99
2022-11-17T18:07:39.343Z,58.71
2022-11-17T18:10:10.417Z,62.42
2022-11-17T18:12:41.139Z,64.15
2022-11-17T18:15:13.063Z,63.35
2022-11-17T18:17:43.553Z,61.95
2022-11-17T18:20:14.217Z,61.77
2022-11-17T18:22:44.741Z,61.08
2022-11-17T18:25:17.923Z,60.61
2022-11-17T18:27:48.867Z,61.02
2022-11-17T18:30:19.698Z,60.49
2022-11-17T18:32:51.231Z,60.59
2022-11-17T18:35:21.707Z,60.31
2022-11-17T18:37:52.477Z,59.92
2022-11-17T18:40:23.602Z,59.81
2022-11-17T18:42:56.033Z,63.45
2022-11-17T18:45:26.745Z,65.12
2022-11-17T18:47:57.178Z,63.82
2022-11-17T18:50:27.859Z,62.41
2022-11-17T18:52:59.038Z,61.34
2022-11-17T18:55:29.582Z,59.98
2022-11-17T18:58:00.326Z,60.05
2022-11-17T19:00:31.047Z,60.50
2022-11-17T19:03:01.823Z,60.69
2022-11-17T19:05:34.778Z,60.71
2022-11-17T19:08:05.642Z,60.71
2022-11-17T19:10:36.225Z,60.21
2022-11-17T19:13:07.140Z,59.75
2022-11-17T19:15:39.160Z,62.59
2022-11-17T19:18:09.688Z,65.16
2022-11-17T19:20:40.549Z,64.28
2022-11-17T19:23:11.457Z,61.69
2022-11-17T19:25:43.123Z,61.42
2022-11-17T19:28:14.399Z,61.74
2022-11-17T19:30:45.167Z,60.66
2022-11-17T19:33:16.203Z,60.92
2022-11-17T19:35:46.878Z,60.84
2022-11-17T19:38:17.878Z,59.99
2022-11-17T19:40:48.666Z,59.58
2022-11-17T19:43:19.661Z,61.06
2022-11-17T19:45:50.279Z,65.77
2022-11-17T19:48:20.914Z,65.22
2022-11-17T19:50:55.872Z,63.64
2022-11-17T19:53:27.187Z,62.13
2022-11-17T19:56:00.736Z,61.51
2022-11-17T19:58:31.215Z,60.83
2022-11-17T20:01:08.134Z,59.72
2022-11-17T20:03:39.086Z,58.98
2022-11-17T20:06:10.177Z,62.56
2022-11-17T20:08:41.329Z,63.40
2022-11-17T20:11:12.882Z,62.06
2022-11-17T20:13:43.599Z,61.82
2022-11-17T20:16:15.010Z,60.68
2022-11-17T20:18:46.540Z,60.88
2022-11-17T20:21:17.149Z,60.61
2022-11-17T20:23:47.922Z,60.06
2022-11-17T20:26:19.463Z,60.29
2022-11-17T20:28:50.165Z,60.08
2022-11-17T20:31:22.008Z,59.67
2022-11-17T20:33:56.471Z,59.23
2022-11-17T20:36:27.673Z,61.55
2022-11-17T20:38:58.918Z,64.85
2022-11-17T20:41:29.810Z,65.99
2022-11-17T20:44:00.998Z,63.78
2022-11-17T20:46:31.920Z,62.50
2022-11-17T20:49:02.349Z,61.69
2022-11-17T20:51:32.892Z,61.00
2022-11-17T20:54:04.236Z,60.06
2022-11-17T20:56:35.074Z,59.85
2022-11-17T20:59:06.736Z,58.90
2022-11-17T21:01:37.815Z,60.59
2022-11-17T21:04:12.026Z,64.15
2022-11-17T21:06:42.527Z,63.48
2022-11-17T21:09:13.068Z,62.08
2022-11-17T21:11:59.556Z,60.68
2022-11-17T21:14:30.743Z,59.58
2022-11-17T21:17:01.775Z,63.30
2022-11-17T21:19:37.843Z,64.23
2022-11-17T21:22:09.542Z,62.72
2022-11-17T21:24:40.377Z,61.47
2022-11-17T21:27:11.228Z,60.39
2022-11-17T21:29:42.215Z,60.81
2022-11-17T21:32:14.329Z,60.98
2022-11-17T21:34:49.641Z,61.17
2022-11-17T21:37:21.117Z,60.83
2022-11-17T21:39:52.359Z,60.50
2022-11-17T21:42:23.021Z,59.16
2022-11-17T21:44:53.817Z,61.36
2022-11-17T21:47:24.556Z,64.97
2022-11-17T21:49:55.344Z,63.99
2022-11-17T21:52:25.941Z,63.01
2022-11-17T21:54:57.021Z,61.62
2022-11-17T21:57:27.490Z,61.18
2022-11-17T21:59:58.322Z,61.10
2022-11-17T22:02:28.953Z,59.79
2022-11-17T22:04:59.791Z,58.88
2022-11-17T22:07:30.541Z,62.43
2022-11-17T22:10:01.259Z,64.92
2022-11-17T22:12:32.087Z,63.73
2022-11-17T22:15:05.108Z,61.95
2022-11-17T22:17:39.904Z,61.17
2022-11-17T22:20:11.151Z,60.91
2022-11-17T22:22:42.194Z,60.22
2022-11-17T22:25:42.872Z,58.21
2022-11-17T22:28:03.686Z,60.97
2022-11-17T22:30:34.158Z,64.24
2022-11-17T22:33:04.907Z,63.69
2022-11-17T22:35:35.928Z,61.70
2022-11-17T22:38:07.115Z,60.83
2022-11-17T22:40:38.092Z,58.65
2022-11-17T22:43:14.469Z,59.22
2022-11-17T22:45:45.613Z,63.15
2022-11-17T22:48:16.023Z,64.33
2022-11-17T22:50:46.682Z,62.84
2022-11-17T22:53:17.409Z,61.45
2022-11-17T22:55:48.559Z,60.64
2022-11-17T22:58:19.585Z,60.57
2022-11-17T23:00:50.132Z,60.04
2022-11-17T23:03:20.913Z,59.71
2022-11-17T23:05:51.735Z,59.67
2022-11-17T23:08:22.429Z,58.81
2022-11-17T23:11:09.031Z,59.47
2022-11-17T23:13:43.670Z,65.04
2022-11-17T23:16:14.494Z,64.02
2022-11-17T23:18:45.055Z,62.53
2022-11-17T23:21:15.844Z,60.73
2022-11-17T23:23:46.686Z,59.98
2022-11-17T23:26:17.554Z,58.74
2022-11-17T23:28:48.404Z,61.25
2022-11-17T23:31:19.294Z,64.51
2022-11-17T23:33:50.444Z,63.89
2022-11-17T23:36:22.240Z,63.06
2022-11-17T23:38:53.335Z,61.89
2022-11-17T23:41:23.967Z,60.59
2022-11-17T23:43:55.228Z,59.78
2022-11-17T23:46:27.830Z,63.20
2022-11-17T23:48:58.543Z,65.16
2022-11-17T23:51:30.174Z,63.12
2022-11-17T23:54:01.029Z,61.76
2022-11-17T23:56:34.615Z,60.24
2022-11-17T23:59:05.365Z,59.99
